createdAt,value
2018-05-11T00:00:33.778Z,2.47
2018-05-11T00:03:05.203Z,2.47
2018-05-11T00:05:32.445Z,2.63
2018-05-11T00:07:59.498Z,2.53
2018-05-11T00:10:27.470Z,2.83
2018-05-11T00:12:54.730Z,3.10
2018-05-11T00:15:23.422Z,2.70
2018-05-11T00:17:51.192Z,3.03
2018-05-11T00:20:22.566Z,3.10
2018-05-11T00:22:49.506Z,3.00
2018-05-11T00:25:16.649Z,2.30
2018-05-11T00:27:44.018Z,2.77
2018-05-11T00:30:12.906Z,2.53
2018-05-11T00:32:40.669Z,3.00
2018-05-11T00:35:07.934Z,2.80
2018-05-11T00:37:36.010Z,2.73
2018-05-11T00:40:03.270Z,2.37
2018-05-11T00:42:31.956Z,2.70
2018-05-11T00:44:59.323Z,2.50
2018-05-11T00:47:26.990Z,2.20
2018-05-11T00:49:54.660Z,2.50
2018-05-11T00:52:22.225Z,2.20
2018-05-11T00:54:50.399Z,2.30
2018-05-11T00:57:17.767Z,2.60
2018-05-11T00:59:45.021Z,2.80
2018-05-11T01:02:13.308Z,2.80
2018-05-11T01:04:40.662Z,2.90
2018-05-11T01:07:09.472Z,2.40
2018-05-11T01:09:36.494Z,2.63
2018-05-11T01:12:04.075Z,2.90
2018-05-11T01:14:31.743Z,2.73
2018-05-11T01:16:59.132Z,2.53
2018-05-11T01:19:26.977Z,2.57
2018-05-11T01:21:54.648Z,2.57
2018-05-11T01:24:21.597Z,2.60
2018-05-11T01:26:48.751Z,2.63
2018-05-11T01:29:15.601Z,2.70
2018-05-11T01:31:43.267Z,2.73
2018-05-11T01:34:10.118Z,2.90
2018-05-11T01:36:37.068Z,2.63
2018-05-11T01:39:05.146Z,3.10
2018-05-11T01:41:32.406Z,2.77
2018-05-11T01:43:59.664Z,2.77
2018-05-11T01:46:27.022Z,2.80
2018-05-11T01:48:54.503Z,2.70
2018-05-11T01:51:22.564Z,3.37
2018-05-11T01:53:49.524Z,2.50
2018-05-11T01:56:16.568Z,2.63
2018-05-11T01:58:43.419Z,2.80
2018-05-11T02:01:10.475Z,2.40
2018-05-11T02:03:45.505Z,2.73
2018-05-11T02:06:13.482Z,2.70
2018-05-11T02:08:40.534Z,2.63
2018-05-11T02:11:08.205Z,2.57
2018-05-11T02:13:35.463Z,2.13
2018-05-11T02:16:03.129Z,2.30
2018-05-11T02:18:31.171Z,2.63
2018-05-11T02:20:59.486Z,2.50
2018-05-11T02:23:28.281Z,3.30
2018-05-11T02:25:55.467Z,2.50
2018-05-11T02:28:24.331Z,2.30
2018-05-11T02:30:53.010Z,3.13
2018-05-11T02:33:20.487Z,2.53
2018-05-11T02:35:49.074Z,2.80
2018-05-11T02:38:15.927Z,2.60
2018-05-11T02:40:43.699Z,2.80
2018-05-11T02:43:12.487Z,2.93
2018-05-11T02:45:39.642Z,2.40
2018-05-11T02:48:06.492Z,2.73
2018-05-11T02:50:33.803Z,2.50
2018-05-11T02:53:01.418Z,2.67
2018-05-11T02:55:28.779Z,2.77
2018-05-11T02:57:56.141Z,2.47
2018-05-11T03:00:24.011Z,2.50
2018-05-11T03:02:51.172Z,2.87
2018-05-11T03:05:18.428Z,2.87
2018-05-11T03:07:45.588Z,3.20
2018-05-11T03:12:44.605Z,2.53
2018-05-11T03:15:11.659Z,2.77
2018-05-11T03:17:39.017Z,2.77
2018-05-11T03:20:06.379Z,2.50
2018-05-11T03:22:34.223Z,2.70
2018-05-11T03:27:33.577Z,2.70
2018-05-11T03:30:02.472Z,2.57
2018-05-11T03:32:31.250Z,2.80
2018-05-11T03:34:58.421Z,2.80
2018-05-11T03:37:25.476Z,2.77
2018-05-11T03:39:53.335Z,3.10
2018-05-11T03:42:20.503Z,2.43
2018-05-11T03:44:49.207Z,3.10
2018-05-11T03:47:16.555Z,2.70
2018-05-11T03:49:43.814Z,2.30
2018-05-11T03:52:11.482Z,2.50
2018-05-11T03:54:39.355Z,3.03
2018-05-11T03:57:07.030Z,3.00
2018-05-11T03:59:34.790Z,2.90
2018-05-11T04:02:15.352Z,2.20
2018-05-11T04:04:54.890Z,2.70
2018-05-11T04:07:34.327Z,2.67
2018-05-11T04:10:01.486Z,2.57
2018-05-11T04:12:29.149Z,2.60
2018-05-11T04:14:56.817Z,2.53
2018-05-11T04:17:23.973Z,2.50
2018-05-11T04:19:51.443Z,2.33
2018-05-11T04:22:19.200Z,2.87
2018-05-11T04:24:46.365Z,2.80
2018-05-11T04:27:14.030Z,2.30
2018-05-11T04:29:41.316Z,2.30
2018-05-11T04:32:08.444Z,2.50
2018-05-11T04:34:37.057Z,2.50
2018-05-11T04:37:04.292Z,2.50
2018-05-11T04:39:32.061Z,2.90
2018-05-11T04:41:59.103Z,2.60
2018-05-11T04:44:27.812Z,2.40
2018-05-11T04:46:55.883Z,2.70
2018-05-11T04:49:22.939Z,2.90
2018-05-11T04:51:50.195Z,2.40
2018-05-11T04:54:17.768Z,2.45
2018-05-11T04:56:45.123Z,2.75
2018-05-11T04:59:12.388Z,2.55
2018-05-11T05:01:39.641Z,2.47
2018-05-11T05:04:08.329Z,2.78
2018-05-11T05:06:35.590Z,2.90
2018-05-11T05:09:04.177Z,2.85
2018-05-11T05:11:31.540Z,2.85
2018-05-11T05:13:58.670Z,2.78
2018-05-11T05:16:25.849Z,2.92
2018-05-11T05:18:53.005Z,3.10
2018-05-11T05:21:21.724Z,2.75
2018-05-11T05:23:49.377Z,3.10
2018-05-11T05:26:17.235Z,2.97
2018-05-11T05:28:44.904Z,2.90
2018-05-11T05:31:13.699Z,2.53
2018-05-11T05:33:44.458Z,3.00
2018-05-11T05:36:11.283Z,2.58
2018-05-11T05:38:39.872Z,2.62
2018-05-11T05:41:09.484Z,2.60
2018-05-11T05:43:37.869Z,2.83
2018-05-11T05:46:05.025Z,2.67
2018-05-11T05:48:31.976Z,2.55
2018-05-11T05:50:59.341Z,2.92
2018-05-11T05:53:29.053Z,2.60
2018-05-11T05:55:56.517Z,3.17
2018-05-11T05:58:24.204Z,2.78
2018-05-11T06:00:51.543Z,3.05
2018-05-11T06:03:18.804Z,2.80
2018-05-11T06:05:47.491Z,2.83
2018-05-11T06:08:14.843Z,3.17
2018-05-11T06:10:43.505Z,2.97
2018-05-11T06:13:12.222Z,3.30
2018-05-11T06:15:40.647Z,2.72
2018-05-11T06:18:08.493Z,2.67
2018-05-11T06:20:35.649Z,2.70
2018-05-11T06:23:02.763Z,2.80
2018-05-11T06:25:29.959Z,2.90
2018-05-11T06:27:57.115Z,2.90
2018-05-11T06:30:25.893Z,3.17
2018-05-11T06:32:53.165Z,3.03
2018-05-11T06:35:21.042Z,2.70
2018-05-11T06:37:48.813Z,3.10
2018-05-11T06:40:15.964Z,3.20
2018-05-11T06:42:43.224Z,3.08
2018-05-11T06:45:10.893Z,2.87
2018-05-11T06:47:38.153Z,2.83
2018-05-11T06:50:05.179Z,3.08
2018-05-11T06:52:33.278Z,3.08
2018-05-11T06:55:01.051Z,3.08
2018-05-11T06:57:28.307Z,2.78
2018-05-11T06:59:55.463Z,2.97
2018-05-11T07:02:22.619Z,3.22
2018-05-11T07:04:49.774Z,3.00
2018-05-11T07:07:18.631Z,3.40
2018-05-11T07:09:47.365Z,3.17
2018-05-11T07:12:16.283Z,3.60
2018-05-11T07:14:43.520Z,3.53
2018-05-11T07:17:10.366Z,2.85
2018-05-11T07:19:37.418Z,2.83
2018-05-11T07:24:37.670Z,2.90
2018-05-11T07:27:05.026Z,3.33
2018-05-11T07:29:32.386Z,2.70
2018-05-11T07:31:59.237Z,3.05
2018-05-11T07:34:26.198Z,2.97
2018-05-11T07:36:55.185Z,3.00
2018-05-11T07:39:22.249Z,2.62
2018-05-11T07:41:49.364Z,2.90
2018-05-11T07:44:16.655Z,3.00
2018-05-11T07:46:43.918Z,2.80
2018-05-11T07:49:11.275Z,3.00
2018-05-11T07:51:39.550Z,2.67
2018-05-11T07:54:07.937Z,3.03
2018-05-11T07:56:35.608Z,3.17
2018-05-11T07:59:02.564Z,3.40
2018-05-11T08:01:29.508Z,3.08
2018-05-11T08:03:58.351Z,2.90
2018-05-11T08:06:25.867Z,2.87
2018-05-11T08:08:52.819Z,2.90
2018-05-11T08:11:19.672Z,2.83
2018-05-11T08:13:47.030Z,2.83
2018-05-11T08:16:14.912Z,2.80
2018-05-11T08:18:42.059Z,3.28
2018-05-11T08:21:10.439Z,2.72
2018-05-11T08:23:38.931Z,2.90
2018-05-11T08:26:07.211Z,3.28
2018-05-11T08:28:34.879Z,2.97
2018-05-11T08:31:02.955Z,3.30
2018-05-11T08:33:31.849Z,2.80
2018-05-11T08:36:00.463Z,3.45
2018-05-11T08:38:28.312Z,3.10
2018-05-11T08:40:55.364Z,3.10
2018-05-11T08:43:22.623Z,2.78
2018-05-11T08:45:51.341Z,3.00
2018-05-11T08:48:18.127Z,3.28
2018-05-11T08:50:45.325Z,2.85
2018-05-11T08:53:12.410Z,3.22
2018-05-11T08:55:39.461Z,2.70
2018-05-11T17:25:53.098Z,3.27
2018-05-11T17:28:20.148Z,3.60
2018-05-11T17:30:47.197Z,3.83
2018-05-11T17:33:14.152Z,3.43
2018-05-11T17:35:41.103Z,3.67
2018-05-11T17:38:08.908Z,3.40
2018-05-11T17:40:36.350Z,3.00
2018-05-11T17:43:05.551Z,3.03
2018-05-11T17:45:33.625Z,3.40
2018-05-11T17:48:02.150Z,4.00
2018-05-11T17:50:29.155Z,3.40
2018-05-11T17:52:58.797Z,3.80
2018-05-11T17:55:27.455Z,3.63
2018-05-11T17:57:54.713Z,3.20
2018-05-11T18:00:21.772Z,3.53
2018-05-11T18:02:48.716Z,3.27
2018-05-11T18:05:15.666Z,3.50
2018-05-11T18:07:42.621Z,3.30
2018-05-11T18:10:09.507Z,3.50
2018-05-11T18:12:36.728Z,3.47
2018-05-11T18:15:03.677Z,3.37
2018-05-11T18:17:30.626Z,3.40
2018-05-11T18:19:57.583Z,3.30
2018-05-11T18:22:24.532Z,3.70
2018-05-11T18:24:51.376Z,3.40
2018-05-11T19:21:47.992Z,4.13
2018-05-11T19:24:15.451Z,3.63
2018-05-11T19:26:42.196Z,3.60
2018-05-11T19:29:09.149Z,3.83
2018-05-11T19:31:36.518Z,3.90
2018-05-11T19:34:03.458Z,3.53
2018-05-11T19:36:30.324Z,3.90
2018-05-11T19:38:57.160Z,3.70
2018-05-11T19:41:24.108Z,4.00
2018-05-11T19:43:50.954Z,3.57
2018-05-11T19:46:17.911Z,3.70
2018-05-11T19:48:44.757Z,4.00
2018-05-11T19:51:11.914Z,3.30
2018-05-11T19:53:38.763Z,4.00
2018-05-11T19:56:05.875Z,3.63
2018-05-11T19:58:32.664Z,3.67
2018-05-11T20:00:59.509Z,4.33
2018-05-11T20:03:26.358Z,3.93
2018-05-11T20:05:53.262Z,3.67
2018-05-11T20:08:20.676Z,3.60
2018-05-11T20:10:47.540Z,3.83
2018-05-11T20:13:16.955Z,4.33
2018-05-11T20:15:43.980Z,3.83
2018-05-11T20:18:10.891Z,3.80
2018-05-11T20:20:38.364Z,4.13
2018-05-11T20:23:05.240Z,3.40
2018-05-11T20:25:32.907Z,3.70
2018-05-11T20:28:00.066Z,3.60
2018-05-11T20:30:27.325Z,3.80
2018-05-11T20:32:54.378Z,3.93
2018-05-11T20:35:21.227Z,3.87
2018-05-11T20:37:48.180Z,3.70
2018-05-11T20:40:15.022Z,4.17
2018-05-11T20:42:41.872Z,3.70
2018-05-11T20:45:08.825Z,4.00
2018-05-11T20:47:35.879Z,3.53
2018-05-11T20:50:02.929Z,4.10
2018-05-11T20:52:29.882Z,3.57
2018-05-11T20:54:56.633Z,3.67
2018-05-11T20:57:23.682Z,3.50
2018-05-11T20:59:50.835Z,3.57
2018-05-11T21:02:18.407Z,3.67
2018-05-11T21:04:47.068Z,3.90
2018-05-11T21:07:13.843Z,3.63
2018-05-11T21:09:40.685Z,3.47
2018-05-11T21:12:07.437Z,4.07
2018-05-11T21:14:35.153Z,3.83
2018-05-11T21:17:02.767Z,3.80
2018-05-11T21:19:30.230Z,3.50
2018-05-11T21:21:57.792Z,3.30
2018-05-11T21:24:24.746Z,3.83
2018-05-11T21:26:52.004Z,3.83
2018-05-11T21:29:22.387Z,4.00
2018-05-11T21:31:49.590Z,4.07
2018-05-11T21:34:16.437Z,4.00
2018-05-11T21:36:44.105Z,4.17
2018-05-11T21:39:11.056Z,3.93
2018-05-11T21:41:38.110Z,3.87
2018-05-11T21:44:05.064Z,4.00
2018-05-11T21:46:33.572Z,3.50
2018-05-11T21:49:01.725Z,3.90
2018-05-11T21:51:28.583Z,4.17
2018-05-11T21:53:55.525Z,4.00
2018-05-11T21:56:22.580Z,4.30
2018-05-11T21:58:49.529Z,4.13
2018-05-11T22:01:16.587Z,3.93
2018-05-11T22:03:45.068Z,4.00
2018-05-11T22:06:13.557Z,3.80
2018-05-11T22:08:40.607Z,4.00
2018-05-11T22:11:07.559Z,3.80
2018-05-11T22:13:35.552Z,4.43
2018-05-11T22:16:02.893Z,3.73
2018-05-11T22:18:29.946Z,4.10
2018-05-11T22:20:56.898Z,4.10
2018-05-11T22:23:24.057Z,4.30
2018-05-11T22:25:53.050Z,3.97
2018-05-11T22:28:21.740Z,4.03
2018-05-11T22:30:48.795Z,4.20
2018-05-11T22:33:15.950Z,4.20
2018-05-11T22:35:43.002Z,4.07
2018-05-11T22:38:09.860Z,4.00
2018-05-11T22:40:36.912Z,4.27
2018-05-11T22:43:07.283Z,4.03
2018-05-11T22:45:38.479Z,3.87
2018-05-11T22:48:10.919Z,4.00
2018-05-11T22:50:38.733Z,4.10
2018-05-11T22:53:08.750Z,4.60
2018-05-11T22:55:38.273Z,3.93
2018-05-11T22:58:05.768Z,4.33
2018-05-11T23:00:43.371Z,4.00
2018-05-11T23:03:12.724Z,3.90
2018-05-11T23:05:39.879Z,4.07
2018-05-11T23:08:06.954Z,4.00
2018-05-11T23:10:34.611Z,4.23
2018-05-11T23:13:01.859Z,4.03
2018-05-11T23:15:28.704Z,3.73
2018-05-11T23:17:55.554Z,4.13
2018-05-11T23:20:22.403Z,4.03
2018-05-11T23:22:51.048Z,4.60
2018-05-11T23:25:18.057Z,3.83
2018-05-11T23:27:45.752Z,4.40
2018-05-11T23:30:12.897Z,3.63
2018-05-11T23:32:39.718Z,4.47
2018-05-11T23:35:08.633Z,4.33
2018-05-11T23:37:35.563Z,4.27
2018-05-11T23:40:02.411Z,4.17
2018-05-11T23:42:29.161Z,3.93
2018-05-11T23:44:56.210Z,3.90
2018-05-11T23:47:24.289Z,3.90
2018-05-11T23:49:51.263Z,3.93
2018-05-11T23:52:18.060Z,4.53
2018-05-11T23:54:45.040Z,4.10
2018-05-11T23:57:12.399Z,4.37
2018-05-11T23:59:39.352Z,4.53
